Terminal Aerodrome Forecast
Issued by NWS

Home | Current Version | Previous Version | Text Only | Print | Product List | Glossary On
Versions: 1 2 3 4 5 6 7 8 9 10 11 12
000
FTUS42 KTAE 281120
TAFABY
TAF
KABY 281120Z 2812/2912 11004KT P6SM SCT070
     FM281500 06005KT P6SM SCT060 BKN200
     FM290100 05003KT P6SM FEW060 SCT200=

USA.gov is the U.S. government's official web portal to all federal, state and local government web resources and services.